sensor_id;sensor_type;location;lat;lon;timestamp;P1;durP1;ratioP1;P2;durP2;ratioP2
4323;SDS011;2175;51.018;6.994;2022-11-20T00:00:06;28.83;;;18.80;;
4323;SDS011;2175;51.018;6.994;2022-11-20T00:02:32;27.77;;;18.10;;
4323;SDS011;2175;51.018;6.994;2022-11-20T00:05:01;26.73;;;18.20;;
4323;SDS011;2175;51.018;6.994;2022-11-20T00:07:27;27.23;;;18.10;;
4323;SDS011;2175;51.018;6.994;2022-11-20T00:09:52;26.00;;;18.07;;
4323;SDS011;2175;51.018;6.994;2022-11-20T00:12:18;26.57;;;17.93;;
4323;SDS011;2175;51.018;6.994;2022-11-20T00:14:43;24.80;;;17.87;;
4323;SDS011;2175;51.018;6.994;2022-11-20T00:17:09;27.30;;;18.43;;
4323;SDS011;2175;51.018;6.994;2022-11-20T00:19:34;25.53;;;17.97;;
4323;SDS011;2175;51.018;6.994;2022-11-20T00:22:00;24.80;;;18.53;;
4323;SDS011;2175;51.018;6.994;2022-11-20T00:24:25;25.40;;;17.13;;
4323;SDS011;2175;51.018;6.994;2022-11-20T00:26:51;27.40;;;16.87;;
4323;SDS011;2175;51.018;6.994;2022-11-20T00:29:17;23.47;;;17.37;;
4323;SDS011;2175;51.018;6.994;2022-11-20T00:31:42;25.77;;;17.60;;
4323;SDS011;2175;51.018;6.994;2022-11-20T00:34:09;26.07;;;17.03;;
4323;SDS011;2175;51.018;6.994;2022-11-20T00:36:35;26.93;;;17.47;;
4323;SDS011;2175;51.018;6.994;2022-11-20T00:39:00;26.63;;;18.30;;
4323;SDS011;2175;51.018;6.994;2022-11-20T00:41:28;24.57;;;17.00;;
4323;SDS011;2175;51.018;6.994;2022-11-20T00:43:54;27.27;;;17.63;;
4323;SDS011;2175;51.018;6.994;2022-11-20T00:46:25;24.87;;;16.73;;
4323;SDS011;2175;51.018;6.994;2022-11-20T00:48:52;27.13;;;17.97;;
4323;SDS011;2175;51.018;6.994;2022-11-20T00:51:19;23.10;;;16.20;;
4323;SDS011;2175;51.018;6.994;2022-11-20T00:53:46;29.20;;;17.60;;
4323;SDS011;2175;51.018;6.994;2022-11-20T00:56:13;24.80;;;17.23;;
4323;SDS011;2175;51.018;6.994;2022-11-20T00:58:41;26.27;;;16.90;;
4323;SDS011;2175;51.018;6.994;2022-11-20T01:01:15;23.98;;;16.80;;
4323;SDS011;2175;51.018;6.994;2022-11-20T01:03:44;24.27;;;17.02;;
4323;SDS011;2175;51.018;6.994;2022-11-20T01:08:41;28.37;;;16.97;;
4323;SDS011;2175;51.018;6.994;2022-11-20T01:11:09;24.50;;;16.73;;
4323;SDS011;2175;51.018;6.994;2022-11-20T01:13:36;25.07;;;17.30;;
4323;SDS011;2175;51.018;6.994;2022-11-20T01:16:10;23.53;;;16.70;;
4323;SDS011;2175;51.018;6.994;2022-11-20T01:18:38;23.00;;;16.53;;
4323;SDS011;2175;51.018;6.994;2022-11-20T01:21:06;23.93;;;16.70;;
4323;SDS011;2175;51.018;6.994;2022-11-20T01:23:39;23.08;;;16.50;;
4323;SDS011;2175;51.018;6.994;2022-11-20T01:26:06;24.95;;;16.60;;
4323;SDS011;2175;51.018;6.994;2022-11-20T01:28:34;27.40;;;17.30;;
4323;SDS011;2175;51.018;6.994;2022-11-20T01:31:00;26.37;;;16.40;;
4323;SDS011;2175;51.018;6.994;2022-11-20T01:33:26;22.73;;;15.47;;
4323;SDS011;2175;51.018;6.994;2022-11-20T01:35:52;21.43;;;15.80;;
4323;SDS011;2175;51.018;6.994;2022-11-20T01:38:18;26.20;;;16.40;;
4323;SDS011;2175;51.018;6.994;2022-11-20T01:40:45;23.47;;;15.77;;
4323;SDS011;2175;51.018;6.994;2022-11-20T01:43:19;26.00;;;17.90;;
4323;SDS011;2175;51.018;6.994;2022-11-20T01:46:21;22.23;;;15.93;;
4323;SDS011;2175;51.018;6.994;2022-11-20T01:53:59;25.47;;;17.37;;
4323;SDS011;2175;51.018;6.994;2022-11-20T01:56:27;25.30;;;16.90;;
4323;SDS011;2175;51.018;6.994;2022-11-20T01:58:56;24.97;;;17.50;;
4323;SDS011;2175;51.018;6.994;2022-11-20T02:01:25;22.90;;;16.07;;
4323;SDS011;2175;51.018;6.994;2022-11-20T02:03:51;26.97;;;17.57;;
4323;SDS011;2175;51.018;6.994;2022-11-20T02:06:26;23.90;;;17.30;;
4323;SDS011;2175;51.018;6.994;2022-11-20T02:08:55;23.43;;;16.03;;
4323;SDS011;2175;51.018;6.994;2022-11-20T02:11:21;29.10;;;18.77;;
4323;SDS011;2175;51.018;6.994;2022-11-20T02:13:47;24.30;;;17.00;;
4323;SDS011;2175;51.018;6.994;2022-11-20T02:18:45;29.70;;;16.80;;
4323;SDS011;2175;51.018;6.994;2022-11-20T02:21:19;23.75;;;17.27;;
4323;SDS011;2175;51.018;6.994;2022-11-20T02:26:44;26.90;;;17.97;;
4323;SDS011;2175;51.018;6.994;2022-11-20T02:29:16;24.25;;;16.20;;
4323;SDS011;2175;51.018;6.994;2022-11-20T02:31:48;27.38;;;17.67;;
4323;SDS011;2175;51.018;6.994;2022-11-20T02:34:14;24.57;;;16.47;;
4323;SDS011;2175;51.018;6.994;2022-11-20T02:36:39;25.03;;;17.13;;
4323;SDS011;2175;51.018;6.994;2022-11-20T02:39:06;23.63;;;16.30;;
4323;SDS011;2175;51.018;6.994;2022-11-20T02:41:35;24.50;;;16.85;;
4323;SDS011;2175;51.018;6.994;2022-11-20T02:44:02;25.50;;;16.90;;
4323;SDS011;2175;51.018;6.994;2022-11-20T02:46:35;23.67;;;16.70;;
4323;SDS011;2175;51.018;6.994;2022-11-20T02:49:03;24.40;;;15.70;;
4323;SDS011;2175;51.018;6.994;2022-11-20T02:51:30;22.70;;;16.13;;
4323;SDS011;2175;51.018;6.994;2022-11-20T02:53:56;22.97;;;16.20;;
4323;SDS011;2175;51.018;6.994;2022-11-20T02:56:21;25.73;;;17.03;;
4323;SDS011;2175;51.018;6.994;2022-11-20T02:58:47;20.93;;;15.50;;
4323;SDS011;2175;51.018;6.994;2022-11-20T03:01:13;25.30;;;16.53;;
4323;SDS011;2175;51.018;6.994;2022-11-20T03:03:39;28.03;;;15.67;;
4323;SDS011;2175;51.018;6.994;2022-11-20T03:06:04;24.63;;;16.20;;
4323;SDS011;2175;51.018;6.994;2022-11-20T03:08:30;22.27;;;15.87;;
4323;SDS011;2175;51.018;6.994;2022-11-20T03:10:56;25.53;;;17.30;;
4323;SDS011;2175;51.018;6.994;2022-11-20T03:13:22;25.30;;;17.17;;
4323;SDS011;2175;51.018;6.994;2022-11-20T03:15:47;23.70;;;16.43;;
4323;SDS011;2175;51.018;6.994;2022-11-20T03:18:13;24.60;;;17.38;;
4323;SDS011;2175;51.018;6.994;2022-11-20T03:20:39;22.03;;;15.50;;
4323;SDS011;2175;51.018;6.994;2022-11-20T03:23:05;24.20;;;16.93;;
4323;SDS011;2175;51.018;6.994;2022-11-20T03:25:30;26.37;;;17.10;;
4323;SDS011;2175;51.018;6.994;2022-11-20T03:27:56;24.83;;;15.97;;
4323;SDS011;2175;51.018;6.994;2022-11-20T03:30:22;25.07;;;17.53;;
4323;SDS011;2175;51.018;6.994;2022-11-20T03:32:47;25.13;;;16.60;;
4323;SDS011;2175;51.018;6.994;2022-11-20T03:35:13;22.30;;;16.30;;
4323;SDS011;2175;51.018;6.994;2022-11-20T03:37:38;24.10;;;16.90;;
4323;SDS011;2175;51.018;6.994;2022-11-20T03:40:04;23.80;;;14.93;;
4323;SDS011;2175;51.018;6.994;2022-11-20T03:42:30;21.93;;;15.07;;
4323;SDS011;2175;51.018;6.994;2022-11-20T03:45:14;24.57;;;16.70;;
4323;SDS011;2175;51.018;6.994;2022-11-20T03:47:41;24.30;;;16.60;;
4323;SDS011;2175;51.018;6.994;2022-11-20T03:50:08;24.30;;;15.32;;
4323;SDS011;2175;51.018;6.994;2022-11-20T03:52:34;25.77;;;17.30;;
4323;SDS011;2175;51.018;6.994;2022-11-20T03:55:00;24.57;;;16.33;;
4323;SDS011;2175;51.018;6.994;2022-11-20T03:57:26;23.17;;;15.60;;
4323;SDS011;2175;51.018;6.994;2022-11-20T03:59:51;24.70;;;16.90;;
4323;SDS011;2175;51.018;6.994;2022-11-20T04:02:17;26.60;;;16.57;;
4323;SDS011;2175;51.018;6.994;2022-11-20T04:04:43;22.63;;;15.50;;
4323;SDS011;2175;51.018;6.994;2022-11-20T04:07:08;25.13;;;17.10;;
4323;SDS011;2175;51.018;6.994;2022-11-20T04:09:34;23.77;;;16.73;;
4323;SDS011;2175;51.018;6.994;2022-11-20T04:12:00;24.37;;;16.80;;
4323;SDS011;2175;51.018;6.994;2022-11-20T04:14:26;24.70;;;15.90;;
4323;SDS011;2175;51.018;6.994;2022-11-20T04:16:51;28.23;;;16.80;;
4323;SDS011;2175;51.018;6.994;2022-11-20T04:19:17;26.27;;;17.23;;
4323;SDS011;2175;51.018;6.994;2022-11-20T04:21:43;29.17;;;17.07;;
4323;SDS011;2175;51.018;6.994;2022-11-20T04:24:09;24.95;;;16.08;;
4323;SDS011;2175;51.018;6.994;2022-11-20T04:26:35;23.50;;;15.87;;
4323;SDS011;2175;51.018;6.994;2022-11-20T04:29:01;27.40;;;17.90;;
4323;SDS011;2175;51.018;6.994;2022-11-20T04:31:29;23.10;;;16.90;;
4323;SDS011;2175;51.018;6.994;2022-11-20T04:34:01;25.30;;;16.80;;
4323;SDS011;2175;51.018;6.994;2022-11-20T04:36:28;26.77;;;18.27;;
4323;SDS011;2175;51.018;6.994;2022-11-20T04:38:58;25.93;;;17.60;;
4323;SDS011;2175;51.018;6.994;2022-11-20T04:41:26;26.97;;;17.23;;
4323;SDS011;2175;51.018;6.994;2022-11-20T04:43:55;23.90;;;15.83;;
4323;SDS011;2175;51.018;6.994;2022-11-20T04:46:24;25.33;;;17.20;;
4323;SDS011;2175;51.018;6.994;2022-11-20T04:48:50;23.50;;;17.00;;
4323;SDS011;2175;51.018;6.994;2022-11-20T04:51:16;21.47;;;15.67;;
4323;SDS011;2175;51.018;6.994;2022-11-20T04:53:42;25.43;;;17.23;;
4323;SDS011;2175;51.018;6.994;2022-11-20T04:56:08;25.40;;;17.37;;
4323;SDS011;2175;51.018;6.994;2022-11-20T04:58:36;29.15;;;17.02;;
4323;SDS011;2175;51.018;6.994;2022-11-20T05:01:03;26.43;;;17.67;;
4323;SDS011;2175;51.018;6.994;2022-11-20T05:03:31;24.77;;;17.13;;
4323;SDS011;2175;51.018;6.994;2022-11-20T05:05:57;23.03;;;17.13;;
4323;SDS011;2175;51.018;6.994;2022-11-20T05:08:26;21.47;;;15.77;;
4323;SDS011;2175;51.018;6.994;2022-11-20T05:10:51;24.03;;;16.03;;
4323;SDS011;2175;51.018;6.994;2022-11-20T05:13:17;26.67;;;16.23;;
4323;SDS011;2175;51.018;6.994;2022-11-20T05:15:42;26.30;;;17.70;;
4323;SDS011;2175;51.018;6.994;2022-11-20T05:18:08;22.90;;;17.10;;
4323;SDS011;2175;51.018;6.994;2022-11-20T05:20:33;24.30;;;16.27;;
4323;SDS011;2175;51.018;6.994;2022-11-20T05:23:01;27.13;;;17.23;;
4323;SDS011;2175;51.018;6.994;2022-11-20T05:25:26;26.93;;;17.83;;
4323;SDS011;2175;51.018;6.994;2022-11-20T05:27:52;25.00;;;16.33;;
4323;SDS011;2175;51.018;6.994;2022-11-20T05:30:18;28.13;;;17.27;;
4323;SDS011;2175;51.018;6.994;2022-11-20T05:32:43;26.40;;;16.90;;
4323;SDS011;2175;51.018;6.994;2022-11-20T05:35:09;25.53;;;17.43;;
4323;SDS011;2175;51.018;6.994;2022-11-20T05:37:35;25.53;;;17.80;;
4323;SDS011;2175;51.018;6.994;2022-11-20T05:40:00;24.00;;;16.60;;
4323;SDS011;2175;51.018;6.994;2022-11-20T05:42:26;23.67;;;16.67;;
4323;SDS011;2175;51.018;6.994;2022-11-20T05:44:55;25.20;;;16.63;;
4323;SDS011;2175;51.018;6.994;2022-11-20T05:47:21;26.45;;;17.60;;
4323;SDS011;2175;51.018;6.994;2022-11-20T05:49:46;27.70;;;16.50;;
4323;SDS011;2175;51.018;6.994;2022-11-20T05:52:12;23.67;;;16.37;;
4323;SDS011;2175;51.018;6.994;2022-11-20T05:54:38;23.50;;;16.80;;
4323;SDS011;2175;51.018;6.994;2022-11-20T05:57:03;28.07;;;17.60;;
4323;SDS011;2175;51.018;6.994;2022-11-20T05:59:29;27.00;;;18.27;;
4323;SDS011;2175;51.018;6.994;2022-11-20T06:01:54;25.43;;;17.13;;
4323;SDS011;2175;51.018;6.994;2022-11-20T06:04:20;24.67;;;17.07;;
4323;SDS011;2175;51.018;6.994;2022-11-20T06:06:45;25.67;;;17.83;;
4323;SDS011;2175;51.018;6.994;2022-11-20T06:09:11;24.17;;;16.87;;
4323;SDS011;2175;51.018;6.994;2022-11-20T06:11:36;25.90;;;17.87;;
4323;SDS011;2175;51.018;6.994;2022-11-20T06:14:02;24.13;;;17.30;;
4323;SDS011;2175;51.018;6.994;2022-11-20T06:16:28;22.17;;;16.30;;
4323;SDS011;2175;51.018;6.994;2022-11-20T06:18:53;25.50;;;17.13;;
4323;SDS011;2175;51.018;6.994;2022-11-20T06:21:20;25.77;;;17.70;;
4323;SDS011;2175;51.018;6.994;2022-11-20T06:23:47;27.60;;;18.60;;
4323;SDS011;2175;51.018;6.994;2022-11-20T06:26:14;24.53;;;16.33;;
4323;SDS011;2175;51.018;6.994;2022-11-20T06:28:41;26.17;;;18.37;;
4323;SDS011;2175;51.018;6.994;2022-11-20T06:31:07;24.60;;;17.70;;
4323;SDS011;2175;51.018;6.994;2022-11-20T06:33:36;27.07;;;17.43;;
4323;SDS011;2175;51.018;6.994;2022-11-20T06:36:02;25.83;;;17.10;;
4323;SDS011;2175;51.018;6.994;2022-11-20T06:38:29;25.80;;;18.13;;
4323;SDS011;2175;51.018;6.994;2022-11-20T06:40:54;25.65;;;17.50;;
4323;SDS011;2175;51.018;6.994;2022-11-20T06:43:20;26.30;;;18.30;;
4323;SDS011;2175;51.018;6.994;2022-11-20T06:45:51;26.52;;;18.15;;
4323;SDS011;2175;51.018;6.994;2022-11-20T06:48:23;27.17;;;17.85;;
4323;SDS011;2175;51.018;6.994;2022-11-20T06:50:50;26.60;;;17.77;;
4323;SDS011;2175;51.018;6.994;2022-11-20T06:53:16;31.17;;;19.37;;
4323;SDS011;2175;51.018;6.994;2022-11-20T06:55:45;27.37;;;18.33;;
4323;SDS011;2175;51.018;6.994;2022-11-20T06:58:12;26.50;;;17.65;;
4323;SDS011;2175;51.018;6.994;2022-11-20T07:00:39;28.08;;;18.52;;
4323;SDS011;2175;51.018;6.994;2022-11-20T07:03:05;28.07;;;18.40;;
4323;SDS011;2175;51.018;6.994;2022-11-20T07:05:33;29.38;;;18.52;;
4323;SDS011;2175;51.018;6.994;2022-11-20T07:07:58;28.27;;;18.25;;
4323;SDS011;2175;51.018;6.994;2022-11-20T07:10:24;29.10;;;19.03;;
4323;SDS011;2175;51.018;6.994;2022-11-20T07:12:51;27.50;;;18.20;;
4323;SDS011;2175;51.018;6.994;2022-11-20T07:15:18;25.30;;;17.93;;
4323;SDS011;2175;51.018;6.994;2022-11-20T07:17:44;29.15;;;19.42;;
4323;SDS011;2175;51.018;6.994;2022-11-20T07:20:11;27.58;;;17.73;;
4323;SDS011;2175;51.018;6.994;2022-11-20T07:22:37;27.80;;;18.90;;
4323;SDS011;2175;51.018;6.994;2022-11-20T07:25:03;27.50;;;18.60;;
4323;SDS011;2175;51.018;6.994;2022-11-20T07:27:29;28.70;;;18.57;;
4323;SDS011;2175;51.018;6.994;2022-11-20T07:29:54;26.03;;;17.63;;
4323;SDS011;2175;51.018;6.994;2022-11-20T07:32:20;25.93;;;17.37;;
4323;SDS011;2175;51.018;6.994;2022-11-20T07:34:46;23.37;;;16.93;;
4323;SDS011;2175;51.018;6.994;2022-11-20T07:37:12;28.43;;;17.60;;
4323;SDS011;2175;51.018;6.994;2022-11-20T07:39:38;28.43;;;18.90;;
4323;SDS011;2175;51.018;6.994;2022-11-20T07:42:03;27.30;;;17.97;;
4323;SDS011;2175;51.018;6.994;2022-11-20T07:44:30;26.90;;;18.03;;
4323;SDS011;2175;51.018;6.994;2022-11-20T07:46:56;26.60;;;17.70;;
4323;SDS011;2175;51.018;6.994;2022-11-20T07:49:21;28.77;;;17.63;;
4323;SDS011;2175;51.018;6.994;2022-11-20T07:51:49;27.50;;;18.00;;
4323;SDS011;2175;51.018;6.994;2022-11-20T07:54:15;24.13;;;16.85;;
4323;SDS011;2175;51.018;6.994;2022-11-20T07:56:41;24.60;;;16.53;;
4323;SDS011;2175;51.018;6.994;2022-11-20T07:59:06;25.93;;;18.03;;
4323;SDS011;2175;51.018;6.994;2022-11-20T08:01:32;25.20;;;17.50;;
4323;SDS011;2175;51.018;6.994;2022-11-20T08:03:57;28.50;;;18.83;;
4323;SDS011;2175;51.018;6.994;2022-11-20T08:06:23;24.57;;;16.47;;
4323;SDS011;2175;51.018;6.994;2022-11-20T08:08:49;28.83;;;18.97;;
4323;SDS011;2175;51.018;6.994;2022-11-20T08:11:15;27.75;;;18.85;;
4323;SDS011;2175;51.018;6.994;2022-11-20T08:14:00;29.10;;;19.98;;
4323;SDS011;2175;51.018;6.994;2022-11-20T08:16:41;27.13;;;18.05;;
4323;SDS011;2175;51.018;6.994;2022-11-20T08:19:12;27.70;;;18.70;;
4323;SDS011;2175;51.018;6.994;2022-11-20T08:21:39;28.23;;;18.75;;
4323;SDS011;2175;51.018;6.994;2022-11-20T08:24:05;28.33;;;19.23;;
4323;SDS011;2175;51.018;6.994;2022-11-20T08:26:31;27.27;;;19.30;;
4323;SDS011;2175;51.018;6.994;2022-11-20T08:28:56;27.90;;;18.10;;
4323;SDS011;2175;51.018;6.994;2022-11-20T08:31:25;27.85;;;18.20;;
4323;SDS011;2175;51.018;6.994;2022-11-20T08:33:52;27.97;;;19.73;;
4323;SDS011;2175;51.018;6.994;2022-11-20T08:36:18;26.05;;;17.85;;
4323;SDS011;2175;51.018;6.994;2022-11-20T08:38:48;30.45;;;20.67;;
4323;SDS011;2175;51.018;6.994;2022-11-20T08:41:14;32.10;;;18.67;;
4323;SDS011;2175;51.018;6.994;2022-11-20T08:43:56;28.17;;;18.93;;
4323;SDS011;2175;51.018;6.994;2022-11-20T08:46:24;33.57;;;21.87;;
4323;SDS011;2175;51.018;6.994;2022-11-20T08:48:50;30.33;;;19.30;;
4323;SDS011;2175;51.018;6.994;2022-11-20T08:51:16;28.40;;;20.20;;
4323;SDS011;2175;51.018;6.994;2022-11-20T08:53:42;32.83;;;21.57;;
4323;SDS011;2175;51.018;6.994;2022-11-20T08:56:08;32.20;;;21.43;;
4323;SDS011;2175;51.018;6.994;2022-11-20T08:58:35;33.23;;;21.40;;
4323;SDS011;2175;51.018;6.994;2022-11-20T09:01:01;33.67;;;22.00;;
4323;SDS011;2175;51.018;6.994;2022-11-20T09:03:27;36.87;;;23.70;;
4323;SDS011;2175;51.018;6.994;2022-11-20T09:06:03;32.10;;;21.70;;
4323;SDS011;2175;51.018;6.994;2022-11-20T09:08:31;33.33;;;22.63;;
4323;SDS011;2175;51.018;6.994;2022-11-20T09:10:57;37.10;;;23.20;;
4323;SDS011;2175;51.018;6.994;2022-11-20T09:13:24;34.60;;;23.20;;
4323;SDS011;2175;51.018;6.994;2022-11-20T09:15:55;34.60;;;22.00;;
4323;SDS011;2175;51.018;6.994;2022-11-20T09:18:22;31.70;;;21.43;;
4323;SDS011;2175;51.018;6.994;2022-11-20T09:20:51;35.70;;;21.23;;
4323;SDS011;2175;51.018;6.994;2022-11-20T09:23:20;31.40;;;22.27;;
4323;SDS011;2175;51.018;6.994;2022-11-20T09:25:46;35.13;;;23.40;;
4323;SDS011;2175;51.018;6.994;2022-11-20T09:28:12;32.00;;;22.40;;
4323;SDS011;2175;51.018;6.994;2022-11-20T09:30:38;32.50;;;20.97;;
4323;SDS011;2175;51.018;6.994;2022-11-20T09:33:04;33.87;;;22.53;;
4323;SDS011;2175;51.018;6.994;2022-11-20T09:35:31;33.77;;;21.37;;
4323;SDS011;2175;51.018;6.994;2022-11-20T09:37:57;33.10;;;21.73;;
4323;SDS011;2175;51.018;6.994;2022-11-20T09:40:26;34.70;;;21.87;;
4323;SDS011;2175;51.018;6.994;2022-11-20T09:46:29;32.73;;;20.90;;
4323;SDS011;2175;51.018;6.994;2022-11-20T09:49:09;29.03;;;19.77;;
4323;SDS011;2175;51.018;6.994;2022-11-20T09:54:32;30.70;;;19.47;;
4323;SDS011;2175;51.018;6.994;2022-11-20T10:00:06;29.73;;;19.60;;
4323;SDS011;2175;51.018;6.994;2022-11-20T10:05:15;25.60;;;17.30;;
4323;SDS011;2175;51.018;6.994;2022-11-20T10:10:52;30.13;;;21.20;;
4323;SDS011;2175;51.018;6.994;2022-11-20T10:29:59;29.53;;;19.07;;
4323;SDS011;2175;51.018;6.994;2022-11-20T10:32:34;35.30;;;21.07;;
4323;SDS011;2175;51.018;6.994;2022-11-20T10:35:14;34.13;;;22.30;;
4323;SDS011;2175;51.018;6.994;2022-11-20T10:37:44;31.37;;;20.20;;
4323;SDS011;2175;51.018;6.994;2022-11-20T10:40:32;36.13;;;22.27;;
4323;SDS011;2175;51.018;6.994;2022-11-20T10:43:08;34.80;;;23.20;;
4323;SDS011;2175;51.018;6.994;2022-11-20T10:45:52;33.43;;;22.47;;
4323;SDS011;2175;51.018;6.994;2022-11-20T10:48:27;34.23;;;22.93;;
4323;SDS011;2175;51.018;6.994;2022-11-20T10:50:57;38.20;;;22.20;;
4323;SDS011;2175;51.018;6.994;2022-11-20T10:56:41;36.17;;;23.17;;
4323;SDS011;2175;51.018;6.994;2022-11-20T10:59:24;37.83;;;22.73;;
4323;SDS011;2175;51.018;6.994;2022-11-20T11:01:57;36.60;;;23.20;;
4323;SDS011;2175;51.018;6.994;2022-11-20T11:04:28;35.83;;;24.13;;
4323;SDS011;2175;51.018;6.994;2022-11-20T11:07:08;32.13;;;21.40;;
4323;SDS011;2175;51.018;6.994;2022-11-20T11:09:41;40.07;;;23.10;;
4323;SDS011;2175;51.018;6.994;2022-11-20T11:12:11;37.33;;;21.80;;
4323;SDS011;2175;51.018;6.994;2022-11-20T11:14:44;35.57;;;22.30;;
4323;SDS011;2175;51.018;6.994;2022-11-20T11:17:22;31.37;;;21.20;;
4323;SDS011;2175;51.018;6.994;2022-11-20T11:20:03;31.33;;;19.93;;
4323;SDS011;2175;51.018;6.994;2022-11-20T11:22:48;35.80;;;22.63;;
4323;SDS011;2175;51.018;6.994;2022-11-20T11:27:56;33.97;;;22.90;;
4323;SDS011;2175;51.018;6.994;2022-11-20T11:30:27;36.70;;;22.20;;
4323;SDS011;2175;51.018;6.994;2022-11-20T11:33:05;40.53;;;24.83;;
4323;SDS011;2175;51.018;6.994;2022-11-20T11:35:38;37.03;;;23.60;;
4323;SDS011;2175;51.018;6.994;2022-11-20T11:38:14;33.67;;;22.57;;
4323;SDS011;2175;51.018;6.994;2022-11-20T11:40:43;32.33;;;22.20;;
4323;SDS011;2175;51.018;6.994;2022-11-20T11:43:17;36.47;;;22.37;;
4323;SDS011;2175;51.018;6.994;2022-11-20T11:46:23;36.97;;;24.60;;
4323;SDS011;2175;51.018;6.994;2022-11-20T11:48:59;36.67;;;23.93;;
4323;SDS011;2175;51.018;6.994;2022-11-20T11:52:01;39.30;;;24.90;;
4323;SDS011;2175;51.018;6.994;2022-11-20T11:54:43;38.30;;;22.57;;
4323;SDS011;2175;51.018;6.994;2022-11-20T12:00:15;36.10;;;23.67;;
4323;SDS011;2175;51.018;6.994;2022-11-20T12:05:23;38.63;;;24.37;;
4323;SDS011;2175;51.018;6.994;2022-11-20T12:07:59;33.70;;;22.53;;
4323;SDS011;2175;51.018;6.994;2022-11-20T12:15:45;36.47;;;23.30;;
4323;SDS011;2175;51.018;6.994;2022-11-20T12:18:17;32.93;;;22.17;;
4323;SDS011;2175;51.018;6.994;2022-11-20T12:23:26;35.37;;;21.10;;
4323;SDS011;2175;51.018;6.994;2022-11-20T12:25:59;35.80;;;22.50;;
4323;SDS011;2175;51.018;6.994;2022-11-20T12:29:14;31.83;;;23.23;;
4323;SDS011;2175;51.018;6.994;2022-11-20T12:37:14;31.00;;;22.10;;
4323;SDS011;2175;51.018;6.994;2022-11-20T12:48:42;34.23;;;22.80;;
4323;SDS011;2175;51.018;6.994;2022-11-20T12:51:34;35.70;;;21.80;;
4323;SDS011;2175;51.018;6.994;2022-11-20T13:08:08;33.63;;;22.03;;
4323;SDS011;2175;51.018;6.994;2022-11-20T13:10:59;35.17;;;21.93;;
4323;SDS011;2175;51.018;6.994;2022-11-20T13:13:54;33.23;;;21.47;;
4323;SDS011;2175;51.018;6.994;2022-11-20T13:19:17;35.07;;;21.50;;
4323;SDS011;2175;51.018;6.994;2022-11-20T13:21:44;35.43;;;21.63;;
4323;SDS011;2175;51.018;6.994;2022-11-20T13:29:37;34.47;;;22.97;;
4323;SDS011;2175;51.018;6.994;2022-11-20T13:32:16;32.37;;;20.90;;
4323;SDS011;2175;51.018;6.994;2022-11-20T13:34:56;30.00;;;21.23;;
4323;SDS011;2175;51.018;6.994;2022-11-20T13:37:24;30.83;;;20.43;;
4323;SDS011;2175;51.018;6.994;2022-11-20T13:39:52;34.00;;;21.27;;
4323;SDS011;2175;51.018;6.994;2022-11-20T13:42:23;33.70;;;20.17;;
4323;SDS011;2175;51.018;6.994;2022-11-20T13:45:00;30.43;;;20.50;;
4323;SDS011;2175;51.018;6.994;2022-11-20T13:47:27;34.00;;;21.60;;
4323;SDS011;2175;51.018;6.994;2022-11-20T13:49:54;32.70;;;20.53;;
4323;SDS011;2175;51.018;6.994;2022-11-20T13:57:40;31.23;;;20.43;;
4323;SDS011;2175;51.018;6.994;2022-11-20T14:00:18;30.80;;;20.67;;
4323;SDS011;2175;51.018;6.994;2022-11-20T14:03:20;31.37;;;18.77;;
4323;SDS011;2175;51.018;6.994;2022-11-20T14:06:04;31.00;;;20.17;;
4323;SDS011;2175;51.018;6.994;2022-11-20T14:08:43;34.03;;;20.17;;
4323;SDS011;2175;51.018;6.994;2022-11-20T14:11:18;30.00;;;20.20;;
4323;SDS011;2175;51.018;6.994;2022-11-20T14:13:59;30.70;;;19.77;;
4323;SDS011;2175;51.018;6.994;2022-11-20T14:16:28;30.33;;;19.40;;
4323;SDS011;2175;51.018;6.994;2022-11-20T14:18:56;31.40;;;20.33;;
4323;SDS011;2175;51.018;6.994;2022-11-20T14:21:40;34.13;;;21.10;;
4323;SDS011;2175;51.018;6.994;2022-11-20T14:24:06;33.40;;;19.77;;
4323;SDS011;2175;51.018;6.994;2022-11-20T14:26:35;32.33;;;21.07;;
4323;SDS011;2175;51.018;6.994;2022-11-20T14:29:01;30.77;;;21.17;;
4323;SDS011;2175;51.018;6.994;2022-11-20T14:31:27;29.57;;;19.80;;
4323;SDS011;2175;51.018;6.994;2022-11-20T14:33:53;29.87;;;19.87;;
4323;SDS011;2175;51.018;6.994;2022-11-20T14:36:21;32.27;;;20.90;;
4323;SDS011;2175;51.018;6.994;2022-11-20T14:38:50;30.50;;;19.63;;
4323;SDS011;2175;51.018;6.994;2022-11-20T14:41:18;29.47;;;20.00;;
4323;SDS011;2175;51.018;6.994;2022-11-20T14:43:56;27.63;;;17.90;;
4323;SDS011;2175;51.018;6.994;2022-11-20T14:46:23;32.17;;;21.17;;
4323;SDS011;2175;51.018;6.994;2022-11-20T14:48:50;32.67;;;20.60;;
4323;SDS011;2175;51.018;6.994;2022-11-20T14:51:57;31.90;;;20.57;;
4323;SDS011;2175;51.018;6.994;2022-11-20T14:54:16;31.17;;;19.50;;
4323;SDS011;2175;51.018;6.994;2022-11-20T14:59:28;30.30;;;19.40;;
4323;SDS011;2175;51.018;6.994;2022-11-20T15:01:59;37.80;;;20.73;;
4323;SDS011;2175;51.018;6.994;2022-11-20T15:04:32;32.23;;;19.57;;
4323;SDS011;2175;51.018;6.994;2022-11-20T15:06:58;32.17;;;19.97;;
4323;SDS011;2175;51.018;6.994;2022-11-20T15:09:24;28.50;;;19.53;;
4323;SDS011;2175;51.018;6.994;2022-11-20T15:11:54;28.93;;;19.10;;
4323;SDS011;2175;51.018;6.994;2022-11-20T15:14:22;27.10;;;18.13;;
4323;SDS011;2175;51.018;6.994;2022-11-20T15:16:49;26.00;;;18.07;;
4323;SDS011;2175;51.018;6.994;2022-11-20T15:19:22;27.63;;;18.23;;
4323;SDS011;2175;51.018;6.994;2022-11-20T15:21:50;31.37;;;19.27;;
4323;SDS011;2175;51.018;6.994;2022-11-20T15:24:15;27.83;;;18.70;;
4323;SDS011;2175;51.018;6.994;2022-11-20T15:26:41;31.93;;;19.40;;
4323;SDS011;2175;51.018;6.994;2022-11-20T15:29:12;28.27;;;18.10;;
4323;SDS011;2175;51.018;6.994;2022-11-20T15:31:39;30.37;;;19.60;;
4323;SDS011;2175;51.018;6.994;2022-11-20T15:34:11;26.80;;;18.40;;
4323;SDS011;2175;51.018;6.994;2022-11-20T15:36:38;30.97;;;19.40;;
4323;SDS011;2175;51.018;6.994;2022-11-20T15:39:04;33.07;;;20.77;;
4323;SDS011;2175;51.018;6.994;2022-11-20T15:41:36;33.83;;;19.80;;
4323;SDS011;2175;51.018;6.994;2022-11-20T15:44:02;34.73;;;20.40;;
4323;SDS011;2175;51.018;6.994;2022-11-20T15:46:30;30.97;;;19.80;;
4323;SDS011;2175;51.018;6.994;2022-11-20T15:49:03;33.73;;;21.37;;
4323;SDS011;2175;51.018;6.994;2022-11-20T15:51:30;34.83;;;21.30;;
4323;SDS011;2175;51.018;6.994;2022-11-20T15:53:59;32.47;;;20.17;;
4323;SDS011;2175;51.018;6.994;2022-11-20T15:56:25;38.03;;;21.50;;
4323;SDS011;2175;51.018;6.994;2022-11-20T15:58:53;37.00;;;21.80;;
4323;SDS011;2175;51.018;6.994;2022-11-20T16:01:19;36.60;;;21.80;;
4323;SDS011;2175;51.018;6.994;2022-11-20T16:03:46;35.80;;;21.53;;
4323;SDS011;2175;51.018;6.994;2022-11-20T16:06:13;32.10;;;20.37;;
4323;SDS011;2175;51.018;6.994;2022-11-20T16:08:41;32.47;;;20.70;;
4323;SDS011;2175;51.018;6.994;2022-11-20T16:11:06;36.77;;;21.70;;
4323;SDS011;2175;51.018;6.994;2022-11-20T16:13:35;35.90;;;22.43;;
4323;SDS011;2175;51.018;6.994;2022-11-20T16:16:23;31.40;;;20.60;;
4323;SDS011;2175;51.018;6.994;2022-11-20T16:18:53;34.10;;;20.13;;
4323;SDS011;2175;51.018;6.994;2022-11-20T16:21:19;34.93;;;20.37;;
4323;SDS011;2175;51.018;6.994;2022-11-20T16:23:45;31.03;;;19.43;;
4323;SDS011;2175;51.018;6.994;2022-11-20T16:28:37;32.83;;;20.60;;
4323;SDS011;2175;51.018;6.994;2022-11-20T16:31:13;37.37;;;20.23;;
4323;SDS011;2175;51.018;6.994;2022-11-20T16:33:40;33.80;;;20.30;;
4323;SDS011;2175;51.018;6.994;2022-11-20T16:36:13;31.73;;;19.80;;
4323;SDS011;2175;51.018;6.994;2022-11-20T16:38:39;33.33;;;20.70;;
4323;SDS011;2175;51.018;6.994;2022-11-20T16:41:06;33.53;;;19.43;;
4323;SDS011;2175;51.018;6.994;2022-11-20T16:43:40;34.30;;;20.83;;
4323;SDS011;2175;51.018;6.994;2022-11-20T16:46:13;34.87;;;19.00;;
4323;SDS011;2175;51.018;6.994;2022-11-20T16:48:43;29.40;;;18.80;;
4323;SDS011;2175;51.018;6.994;2022-11-20T16:51:09;29.70;;;18.23;;